sensor_id;sensor_type;location;lat;lon;timestamp;pressure;altitude;pressure_sealevel;temperature;humidity
53300;BME280;39187;48.476;8.310;2023-08-06T00:00:04;90661.91;;;11.23;100.00
53300;BME280;39187;48.476;8.310;2023-08-06T00:02:30;90660.41;;;11.22;100.00
53300;BME280;39187;48.476;8.310;2023-08-06T00:04:55;90661.47;;;11.25;100.00
53300;BME280;39187;48.476;8.310;2023-08-06T00:07:21;90668.03;;;11.33;100.00
53300;BME280;39187;48.476;8.310;2023-08-06T00:09:46;90659.56;;;11.25;100.00
53300;BME280;39187;48.476;8.310;2023-08-06T00:12:12;90654.31;;;11.22;100.00
53300;BME280;39187;48.476;8.310;2023-08-06T00:14:37;90645.41;;;11.16;100.00
53300;BME280;39187;48.476;8.310;2023-08-06T00:17:03;90644.66;;;11.15;100.00
53300;BME280;39187;48.476;8.310;2023-08-06T00:19:31;90626.31;;;11.17;100.00
53300;BME280;39187;48.476;8.310;2023-08-06T00:21:56;90633.91;;;11.06;100.00
53300;BME280;39187;48.476;8.310;2023-08-06T00:24:23;90629.38;;;10.94;100.00
53300;BME280;39187;48.476;8.310;2023-08-06T00:26:49;90627.00;;;10.96;100.00
53300;BME280;39187;48.476;8.310;2023-08-06T00:29:14;90630.09;;;10.95;100.00
53300;BME280;39187;48.476;8.310;2023-08-06T00:31:40;90625.97;;;10.94;100.00
53300;BME280;39187;48.476;8.310;2023-08-06T00:34:05;90625.41;;;10.99;100.00
53300;BME280;39187;48.476;8.310;2023-08-06T00:36:31;90618.19;;;10.87;100.00
53300;BME280;39187;48.476;8.310;2023-08-06T00:38:56;90620.09;;;10.99;100.00
53300;BME280;39187;48.476;8.310;2023-08-06T00:41:22;90619.53;;;11.04;100.00
53300;BME280;39187;48.476;8.310;2023-08-06T00:43:47;90621.59;;;11.00;100.00
53300;BME280;39187;48.476;8.310;2023-08-06T00:46:13;90615.50;;;10.99;100.00
53300;BME280;39187;48.476;8.310;2023-08-06T00:48:40;90615.72;;;11.05;100.00
53300;BME280;39187;48.476;8.310;2023-08-06T00:51:09;90623.88;;;11.10;100.00
53300;BME280;39187;48.476;8.310;2023-08-06T00:53:36;90611.00;;;11.09;100.00
53300;BME280;39187;48.476;8.310;2023-08-06T00:56:02;90623.13;;;11.10;100.00
53300;BME280;39187;48.476;8.310;2023-08-06T00:58:28;90621.22;;;11.10;100.00
53300;BME280;39187;48.476;8.310;2023-08-06T01:00:54;90619.34;;;10.98;100.00
53300;BME280;39187;48.476;8.310;2023-08-06T01:03:19;90612.72;;;11.03;100.00
53300;BME280;39187;48.476;8.310;2023-08-06T01:05:45;90611.75;;;11.09;100.00
53300;BME280;39187;48.476;8.310;2023-08-06T01:08:16;90607.88;;;11.23;100.00
53300;BME280;39187;48.476;8.310;2023-08-06T01:13:37;90617.47;;;11.20;100.00
53300;BME280;39187;48.476;8.310;2023-08-06T01:16:06;90618.72;;;11.29;100.00
53300;BME280;39187;48.476;8.310;2023-08-06T01:18:32;90609.19;;;11.40;100.00
53300;BME280;39187;48.476;8.310;2023-08-06T01:20:58;90612.63;;;11.06;100.00
53300;BME280;39187;48.476;8.310;2023-08-06T01:23:24;90610.25;;;11.08;100.00
53300;BME280;39187;48.476;8.310;2023-08-06T01:25:56;90606.94;;;11.17;100.00
53300;BME280;39187;48.476;8.310;2023-08-06T01:31:05;90606.31;;;11.13;100.00
53300;BME280;39187;48.476;8.310;2023-08-06T01:33:34;90595.50;;;11.29;100.00
53300;BME280;39187;48.476;8.310;2023-08-06T01:36:01;90595.56;;;11.38;100.00
53300;BME280;39187;48.476;8.310;2023-08-06T01:38:27;90590.16;;;11.29;100.00
53300;BME280;39187;48.476;8.310;2023-08-06T01:40:53;90591.94;;;11.10;100.00
53300;BME280;39187;48.476;8.310;2023-08-06T01:43:19;90593.75;;;11.13;100.00
53300;BME280;39187;48.476;8.310;2023-08-06T01:45:44;90600.84;;;11.16;100.00
53300;BME280;39187;48.476;8.310;2023-08-06T01:48:10;90584.38;;;11.09;100.00
53300;BME280;39187;48.476;8.310;2023-08-06T01:50:35;90585.63;;;11.17;100.00
53300;BME280;39187;48.476;8.310;2023-08-06T01:53:01;90575.94;;;11.10;100.00
53300;BME280;39187;48.476;8.310;2023-08-06T01:55:26;90571.78;;;10.88;100.00
53300;BME280;39187;48.476;8.310;2023-08-06T01:57:52;90559.97;;;11.10;100.00
53300;BME280;39187;48.476;8.310;2023-08-06T02:00:17;90565.72;;;11.09;100.00
53300;BME280;39187;48.476;8.310;2023-08-06T02:02:43;90554.72;;;11.19;100.00
53300;BME280;39187;48.476;8.310;2023-08-06T02:05:08;90556.41;;;10.92;100.00
53300;BME280;39187;48.476;8.310;2023-08-06T02:07:34;90549.50;;;11.16;100.00
53300;BME280;39187;48.476;8.310;2023-08-06T02:09:59;90546.53;;;11.14;100.00
53300;BME280;39187;48.476;8.310;2023-08-06T02:12:25;90546.03;;;11.06;100.00
53300;BME280;39187;48.476;8.310;2023-08-06T02:14:50;90544.06;;;11.19;100.00
53300;BME280;39187;48.476;8.310;2023-08-06T02:17:16;90541.94;;;10.93;100.00
53300;BME280;39187;48.476;8.310;2023-08-06T02:19:41;90541.75;;;10.87;100.00
53300;BME280;39187;48.476;8.310;2023-08-06T02:22:08;90543.53;;;10.90;100.00
53300;BME280;39187;48.476;8.310;2023-08-06T02:24:34;90527.25;;;10.88;100.00
53300;BME280;39187;48.476;8.310;2023-08-06T02:26:59;90532.31;;;10.73;100.00
53300;BME280;39187;48.476;8.310;2023-08-06T02:29:25;90533.78;;;10.74;100.00
53300;BME280;39187;48.476;8.310;2023-08-06T02:31:50;90536.22;;;10.81;100.00
53300;BME280;39187;48.476;8.310;2023-08-06T02:34:16;90533.28;;;10.67;100.00
53300;BME280;39187;48.476;8.310;2023-08-06T02:36:41;90538.06;;;10.59;100.00
53300;BME280;39187;48.476;8.310;2023-08-06T02:39:07;90537.00;;;10.57;100.00
53300;BME280;39187;48.476;8.310;2023-08-06T02:41:32;90534.03;;;10.55;100.00
53300;BME280;39187;48.476;8.310;2023-08-06T02:43:58;90528.81;;;10.51;100.00
53300;BME280;39187;48.476;8.310;2023-08-06T02:46:23;90524.19;;;10.42;100.00
53300;BME280;39187;48.476;8.310;2023-08-06T02:48:49;90524.94;;;10.30;100.00
53300;BME280;39187;48.476;8.310;2023-08-06T02:51:14;90529.28;;;10.50;100.00
53300;BME280;39187;48.476;8.310;2023-08-06T02:53:39;90534.69;;;10.46;100.00
53300;BME280;39187;48.476;8.310;2023-08-06T02:56:05;90539.47;;;10.38;100.00
53300;BME280;39187;48.476;8.310;2023-08-06T02:58:31;90540.97;;;10.39;100.00
53300;BME280;39187;48.476;8.310;2023-08-06T03:01:00;90524.28;;;10.39;100.00
53300;BME280;39187;48.476;8.310;2023-08-06T03:03:28;90530.44;;;10.49;100.00
53300;BME280;39187;48.476;8.310;2023-08-06T03:05:54;90535.34;;;10.37;100.00
53300;BME280;39187;48.476;8.310;2023-08-06T03:08:20;90539.28;;;10.33;100.00
53300;BME280;39187;48.476;8.310;2023-08-06T03:10:48;90530.13;;;10.34;100.00
53300;BME280;39187;48.476;8.310;2023-08-06T03:13:14;90534.72;;;10.33;100.00
53300;BME280;39187;48.476;8.310;2023-08-06T03:15:40;90539.06;;;10.15;100.00
53300;BME280;39187;48.476;8.310;2023-08-06T03:18:05;90526.94;;;10.14;100.00
53300;BME280;39187;48.476;8.310;2023-08-06T03:20:32;90520.03;;;10.16;100.00
53300;BME280;39187;48.476;8.310;2023-08-06T03:22:58;90522.69;;;10.03;100.00
53300;BME280;39187;48.476;8.310;2023-08-06T03:25:23;90521.59;;;10.14;100.00
53300;BME280;39187;48.476;8.310;2023-08-06T03:27:49;90521.19;;;10.15;100.00
53300;BME280;39187;48.476;8.310;2023-08-06T03:30:15;90514.25;;;10.05;100.00
53300;BME280;39187;48.476;8.310;2023-08-06T03:32:40;90513.97;;;9.90;100.00
53300;BME280;39187;48.476;8.310;2023-08-06T03:35:06;90526.59;;;9.86;100.00
53300;BME280;39187;48.476;8.310;2023-08-06T03:37:32;90516.72;;;9.74;100.00
53300;BME280;39187;48.476;8.310;2023-08-06T03:39:57;90520.88;;;9.75;100.00
53300;BME280;39187;48.476;8.310;2023-08-06T03:42:23;90518.22;;;9.88;100.00
53300;BME280;39187;48.476;8.310;2023-08-06T03:44:48;90513.00;;;9.97;100.00
53300;BME280;39187;48.476;8.310;2023-08-06T03:47:13;90505.13;;;9.93;100.00
53300;BME280;39187;48.476;8.310;2023-08-06T03:49:39;90506.84;;;10.00;100.00
53300;BME280;39187;48.476;8.310;2023-08-06T03:52:05;90507.38;;;9.95;100.00
53300;BME280;39187;48.476;8.310;2023-08-06T03:54:31;90503.63;;;10.05;100.00
53300;BME280;39187;48.476;8.310;2023-08-06T03:56:56;90503.75;;;9.89;100.00
53300;BME280;39187;48.476;8.310;2023-08-06T03:59:22;90493.34;;;9.82;100.00
53300;BME280;39187;48.476;8.310;2023-08-06T04:01:47;90492.28;;;9.92;100.00
53300;BME280;39187;48.476;8.310;2023-08-06T04:04:13;90492.50;;;9.85;100.00
53300;BME280;39187;48.476;8.310;2023-08-06T04:06:38;90488.34;;;9.96;100.00
53300;BME280;39187;48.476;8.310;2023-08-06T04:09:04;90496.41;;;9.93;100.00
53300;BME280;39187;48.476;8.310;2023-08-06T04:11:29;90493.13;;;9.89;100.00
53300;BME280;39187;48.476;8.310;2023-08-06T04:13:55;90490.69;;;9.94;100.00
53300;BME280;39187;48.476;8.310;2023-08-06T04:16:21;90491.22;;;9.89;100.00
53300;BME280;39187;48.476;8.310;2023-08-06T04:18:47;90495.56;;;9.83;100.00
53300;BME280;39187;48.476;8.310;2023-08-06T04:21:12;90501.50;;;9.87;100.00
53300;BME280;39187;48.476;8.310;2023-08-06T04:23:38;90493.44;;;9.91;100.00
53300;BME280;39187;48.476;8.310;2023-08-06T04:26:03;90496.13;;;9.91;100.00
53300;BME280;39187;48.476;8.310;2023-08-06T04:28:29;90495.56;;;9.96;100.00
53300;BME280;39187;48.476;8.310;2023-08-06T04:30:55;90492.38;;;9.88;100.00
53300;BME280;39187;48.476;8.310;2023-08-06T04:33:21;90491.53;;;9.91;100.00
53300;BME280;39187;48.476;8.310;2023-08-06T04:35:46;90490.69;;;9.94;100.00
53300;BME280;39187;48.476;8.310;2023-08-06T04:38:12;90485.69;;;9.84;100.00
53300;BME280;39187;48.476;8.310;2023-08-06T04:40:37;90483.78;;;9.84;100.00
53300;BME280;39187;48.476;8.310;2023-08-06T04:43:03;90495.47;;;9.74;100.00
53300;BME280;39187;48.476;8.310;2023-08-06T04:45:28;90488.66;;;9.73;100.00
53300;BME280;39187;48.476;8.310;2023-08-06T04:47:54;90488.13;;;9.91;100.00
53300;BME280;39187;48.476;8.310;2023-08-06T04:50:20;90494.09;;;9.82;100.00
53300;BME280;39187;48.476;8.310;2023-08-06T04:52:46;90499.50;;;9.91;100.00
53300;BME280;39187;48.476;8.310;2023-08-06T04:55:11;90502.16;;;9.79;100.00
53300;BME280;39187;48.476;8.310;2023-08-06T04:57:37;90498.03;;;9.78;100.00
53300;BME280;39187;48.476;8.310;2023-08-06T05:00:03;90496.59;;;9.60;100.00
53300;BME280;39187;48.476;8.310;2023-08-06T05:02:30;90493.75;;;9.68;100.00
53300;BME280;39187;48.476;8.310;2023-08-06T05:04:58;90495.78;;;9.76;100.00
53300;BME280;39187;48.476;8.310;2023-08-06T05:07:23;90501.50;;;9.75;100.00
53300;BME280;39187;48.476;8.310;2023-08-06T05:09:49;90507.38;;;9.95;100.00
53300;BME280;39187;48.476;8.310;2023-08-06T05:12:14;90505.13;;;9.68;100.00
53300;BME280;39187;48.476;8.310;2023-08-06T05:14:40;90502.69;;;9.74;100.00
53300;BME280;39187;48.476;8.310;2023-08-06T05:17:05;90510.97;;;9.88;100.00
53300;BME280;39187;48.476;8.310;2023-08-06T05:19:31;90503.53;;;9.58;100.00
53300;BME280;39187;48.476;8.310;2023-08-06T05:21:57;90510.56;;;9.77;100.00
53300;BME280;39187;48.476;8.310;2023-08-06T05:24:22;90510.97;;;9.76;100.00
53300;BME280;39187;48.476;8.310;2023-08-06T05:26:47;90516.28;;;9.76;100.00
53300;BME280;39187;48.476;8.310;2023-08-06T05:29:14;90507.38;;;9.70;100.00
53300;BME280;39187;48.476;8.310;2023-08-06T05:31:39;90506.72;;;9.65;100.00
53300;BME280;39187;48.476;8.310;2023-08-06T05:34:05;90504.38;;;9.55;100.00
53300;BME280;39187;48.476;8.310;2023-08-06T05:36:30;90506.81;;;9.62;100.00
53300;BME280;39187;48.476;8.310;2023-08-06T05:38:56;90512.34;;;9.68;100.00
53300;BME280;39187;48.476;8.310;2023-08-06T05:41:21;90512.13;;;9.62;100.00
53300;BME280;39187;48.476;8.310;2023-08-06T05:43:47;90504.28;;;9.58;100.00
53300;BME280;39187;48.476;8.310;2023-08-06T05:46:12;90503.53;;;9.58;100.00
53300;BME280;39187;48.476;8.310;2023-08-06T05:48:37;90503.50;;;9.45;100.00
53300;BME280;39187;48.476;8.310;2023-08-06T05:51:03;90503.09;;;9.47;100.00
53300;BME280;39187;48.476;8.310;2023-08-06T05:53:28;90509.16;;;9.47;100.00
53300;BME280;39187;48.476;8.310;2023-08-06T05:55:54;90510.13;;;9.53;100.00
53300;BME280;39187;48.476;8.310;2023-08-06T05:58:19;90516.69;;;9.49;100.00
53300;BME280;39187;48.476;8.310;2023-08-06T06:00:45;90517.00;;;9.51;100.00
53300;BME280;39187;48.476;8.310;2023-08-06T06:03:11;90535.25;;;9.36;100.00
53300;BME280;39187;48.476;8.310;2023-08-06T06:05:39;90532.78;;;9.29;100.00
53300;BME280;39187;48.476;8.310;2023-08-06T06:08:05;90540.78;;;9.42;100.00
53300;BME280;39187;48.476;8.310;2023-08-06T06:10:30;90541.22;;;9.40;100.00
53300;BME280;39187;48.476;8.310;2023-08-06T06:12:56;90529.63;;;9.34;100.00
53300;BME280;39187;48.476;8.310;2023-08-06T06:15:21;90539.72;;;9.39;100.00
53300;BME280;39187;48.476;8.310;2023-08-06T06:17:47;90546.63;;;9.37;100.00
53300;BME280;39187;48.476;8.310;2023-08-06T06:20:13;90532.16;;;9.25;100.00
53300;BME280;39187;48.476;8.310;2023-08-06T06:22:38;90539.66;;;9.14;100.00
53300;BME280;39187;48.476;8.310;2023-08-06T06:25:04;90534.81;;;9.25;100.00
53300;BME280;39187;48.476;8.310;2023-08-06T06:27:30;90551.72;;;9.31;100.00
53300;BME280;39187;48.476;8.310;2023-08-06T06:29:55;90537.91;;;9.36;100.00
53300;BME280;39187;48.476;8.310;2023-08-06T06:32:21;90546.63;;;9.37;100.00
53300;BME280;39187;48.476;8.310;2023-08-06T06:34:47;90549.50;;;9.42;100.00
53300;BME280;39187;48.476;8.310;2023-08-06T06:37:13;90551.84;;;9.40;100.00
53300;BME280;39187;48.476;8.310;2023-08-06T06:39:38;90540.66;;;9.33;100.00
53300;BME280;39187;48.476;8.310;2023-08-06T06:42:04;90543.97;;;9.37;100.00
53300;BME280;39187;48.476;8.310;2023-08-06T06:44:30;90552.03;;;9.33;100.00
53300;BME280;39187;48.476;8.310;2023-08-06T06:46:55;90548.94;;;9.35;100.00
53300;BME280;39187;48.476;8.310;2023-08-06T06:49:21;90550.00;;;9.24;100.00
53300;BME280;39187;48.476;8.310;2023-08-06T06:51:46;90559.34;;;9.29;100.00
53300;BME280;39187;48.476;8.310;2023-08-06T06:54:12;90552.22;;;9.26;100.00
53300;BME280;39187;48.476;8.310;2023-08-06T06:56:38;90552.25;;;9.10;100.00
53300;BME280;39187;48.476;8.310;2023-08-06T06:59:03;90571.94;;;9.12;100.00
53300;BME280;39187;48.476;8.310;2023-08-06T07:01:29;90568.16;;;9.26;100.00
53300;BME280;39187;48.476;8.310;2023-08-06T07:03:54;90564.22;;;9.31;100.00
53300;BME280;39187;48.476;8.310;2023-08-06T07:06:20;90570.91;;;9.22;100.00
53300;BME280;39187;48.476;8.310;2023-08-06T07:08:45;90580.72;;;9.38;100.00
53300;BME280;39187;48.476;8.310;2023-08-06T07:11:11;90571.91;;;9.41;100.00
53300;BME280;39187;48.476;8.310;2023-08-06T07:13:36;90563.03;;;9.19;100.00
53300;BME280;39187;48.476;8.310;2023-08-06T07:16:02;90552.41;;;9.19;100.00
53300;BME280;39187;48.476;8.310;2023-08-06T07:18:28;90568.91;;;9.27;100.00
53300;BME280;39187;48.476;8.310;2023-08-06T07:20:54;90569.13;;;9.32;100.00
53300;BME280;39187;48.476;8.310;2023-08-06T07:23:22;90564.88;;;9.35;100.00
53300;BME280;39187;48.476;8.310;2023-08-06T07:25:48;90568.38;;;9.32;100.00
53300;BME280;39187;48.476;8.310;2023-08-06T07:28:14;90567.97;;;9.33;100.00
53300;BME280;39187;48.476;8.310;2023-08-06T07:30:40;90588.72;;;9.22;100.00
53300;BME280;39187;48.476;8.310;2023-08-06T07:33:06;90565.50;;;9.26;100.00
53300;BME280;39187;48.476;8.310;2023-08-06T07:35:32;90577.44;;;9.34;100.00
53300;BME280;39187;48.476;8.310;2023-08-06T07:37:58;90579.66;;;9.36;100.00
53300;BME280;39187;48.476;8.310;2023-08-06T07:40:24;90584.84;;;9.27;100.00
53300;BME280;39187;48.476;8.310;2023-08-06T07:42:49;90583.78;;;9.37;100.00
53300;BME280;39187;48.476;8.310;2023-08-06T07:45:15;90580.72;;;9.38;100.00
53300;BME280;39187;48.476;8.310;2023-08-06T07:47:40;90583.38;;;9.38;100.00
53300;BME280;39187;48.476;8.310;2023-08-06T07:50:06;90593.94;;;9.54;100.00
53300;BME280;39187;48.476;8.310;2023-08-06T07:52:32;90591.91;;;9.46;100.00
53300;BME280;39187;48.476;8.310;2023-08-06T07:54:58;90589.78;;;9.41;100.00
53300;BME280;39187;48.476;8.310;2023-08-06T07:57:24;90596.44;;;9.33;100.00
53300;BME280;39187;48.476;8.310;2023-08-06T07:59:49;90596.44;;;9.33;100.00
53300;BME280;39187;48.476;8.310;2023-08-06T08:02:15;90606.19;;;9.36;100.00
53300;BME280;39187;48.476;8.310;2023-08-06T08:04:41;90602.69;;;9.26;100.00
53300;BME280;39187;48.476;8.310;2023-08-06T08:07:06;90606.94;;;9.36;100.00
53300;BME280;39187;48.476;8.310;2023-08-06T08:09:31;90601.47;;;9.43;100.00
53300;BME280;39187;48.476;8.310;2023-08-06T08:11:57;90598.72;;;9.47;100.00
53300;BME280;39187;48.476;8.310;2023-08-06T08:14:24;90615.03;;;9.33;100.00
53300;BME280;39187;48.476;8.310;2023-08-06T08:16:49;90605.75;;;9.24;100.00
53300;BME280;39187;48.476;8.310;2023-08-06T08:19:15;90616.22;;;9.44;100.00
53300;BME280;39187;48.476;8.310;2023-08-06T08:21:40;90595.22;;;9.50;100.00
53300;BME280;39187;48.476;8.310;2023-08-06T08:24:12;90598.97;;;9.65;100.00
53300;BME280;39187;48.476;8.310;2023-08-06T08:26:37;90596.00;;;9.63;100.00
53300;BME280;39187;48.476;8.310;2023-08-06T08:29:03;90608.19;;;9.60;100.00
53300;BME280;39187;48.476;8.310;2023-08-06T08:31:28;90611.28;;;9.59;100.00
53300;BME280;39187;48.476;8.310;2023-08-06T08:33:54;90609.41;;;9.72;100.00
53300;BME280;39187;48.476;8.310;2023-08-06T08:36:20;90618.53;;;9.71;100.00
53300;BME280;39187;48.476;8.310;2023-08-06T08:38:46;90618.41;;;9.62;100.00
53300;BME280;39187;48.476;8.310;2023-08-06T08:41:11;90618.09;;;9.60;100.00
53300;BME280;39187;48.476;8.310;2023-08-06T08:43:37;90615.53;;;9.56;100.00
53300;BME280;39187;48.476;8.310;2023-08-06T08:46:04;90624.44;;;9.50;100.00
53300;BME280;39187;48.476;8.310;2023-08-06T08:48:31;90629.13;;;9.58;100.00
53300;BME280;39187;48.476;8.310;2023-08-06T08:50:57;90624.88;;;9.61;100.00
53300;BME280;39187;48.476;8.310;2023-08-06T08:53:23;90629.75;;;9.50;100.00
53300;BME280;39187;48.476;8.310;2023-08-06T08:55:50;90634.97;;;9.53;100.00
53300;BME280;39187;48.476;8.310;2023-08-06T08:58:16;90630.50;;;9.50;100.00
53300;BME280;39187;48.476;8.310;2023-08-06T09:00:42;90620.72;;;9.47;100.00
53300;BME280;39187;48.476;8.310;2023-08-06T09:03:08;90616.59;;;9.59;100.00
53300;BME280;39187;48.476;8.310;2023-08-06T09:05:34;90637.94;;;9.55;100.00
53300;BME280;39187;48.476;8.310;2023-08-06T09:08:04;90629.59;;;9.70;100.00
53300;BME280;39187;48.476;8.310;2023-08-06T09:10:30;90629.97;;;9.55;100.00
53300;BME280;39187;48.476;8.310;2023-08-06T09:12:56;90648.03;;;9.60;100.00
53300;BME280;39187;48.476;8.310;2023-08-06T09:15:26;90654.66;;;9.69;100.00
53300;BME280;39187;48.476;8.310;2023-08-06T09:17:55;90639.34;;;9.60;100.00
53300;BME280;39187;48.476;8.310;2023-08-06T09:20:21;90645.81;;;9.59;100.00
53300;BME280;39187;48.476;8.310;2023-08-06T09:22:47;90647.97;;;9.64;100.00
53300;BME280;39187;48.476;8.310;2023-08-06T09:25:22;90646.44;;;9.50;100.00
53300;BME280;39187;48.476;8.310;2023-08-06T09:27:53;90641.69;;;9.58;100.00
53300;BME280;39187;48.476;8.310;2023-08-06T09:30:33;90650.91;;;9.53;100.00
53300;BME280;39187;48.476;8.310;2023-08-06T09:32:59;90644.56;;;9.63;100.00
53300;BME280;39187;48.476;8.310;2023-08-06T09:35:28;90649.13;;;9.63;100.00
53300;BME280;39187;48.476;8.310;2023-08-06T09:37:54;90647.84;;;9.68;100.00
53300;BME280;39187;48.476;8.310;2023-08-06T09:40:30;90653.34;;;9.60;100.00
53300;BME280;39187;48.476;8.310;2023-08-06T09:42:57;90653.06;;;9.58;100.00
53300;BME280;39187;48.476;8.310;2023-08-06T09:45:28;90646.25;;;9.57;100.00
53300;BME280;39187;48.476;8.310;2023-08-06T09:47:59;90655.28;;;9.60;100.00
53300;BME280;39187;48.476;8.310;2023-08-06T09:50:36;90655.63;;;9.75;100.00
53300;BME280;39187;48.476;8.310;2023-08-06T09:53:03;90663.72;;;9.71;100.00
53300;BME280;39187;48.476;8.310;2023-08-06T09:55:29;90658.59;;;9.64;100.00
53300;BME280;39187;48.476;8.310;2023-08-06T09:57:55;90664.53;;;9.68;100.00
53300;BME280;39187;48.476;8.310;2023-08-06T10:00:21;90668.00;;;9.81;100.00
53300;BME280;39187;48.476;8.310;2023-08-06T10:02:49;90669.59;;;9.79;100.00
53300;BME280;39187;48.476;8.310;2023-08-06T10:05:17;90670.59;;;9.97;100.00
53300;BME280;39187;48.476;8.310;2023-08-06T10:07:43;90670.25;;;9.95;100.00
53300;BME280;39187;48.476;8.310;2023-08-06T10:10:10;90673.22;;;9.85;100.00
53300;BME280;39187;48.476;8.310;2023-08-06T10:12:41;90685.25;;;9.89;100.00
53300;BME280;39187;48.476;8.310;2023-08-06T10:15:11;90683.00;;;9.88;100.00
53300;BME280;39187;48.476;8.310;2023-08-06T10:17:38;90689.34;;;9.78;100.00
53300;BME280;39187;48.476;8.310;2023-08-06T10:20:08;90682.63;;;9.73;100.00
53300;BME280;39187;48.476;8.310;2023-08-06T10:22:34;90692.56;;;9.85;100.00
53300;BME280;39187;48.476;8.310;2023-08-06T10:25:01;90701.16;;;9.77;100.00
53300;BME280;39187;48.476;8.310;2023-08-06T10:27:33;90702.66;;;9.61;100.00
53300;BME280;39187;48.476;8.310;2023-08-06T10:30:30;90693.59;;;9.75;100.00
53300;BME280;39187;48.476;8.310;2023-08-06T10:33:02;90707.41;;;9.70;100.00
53300;BME280;39187;48.476;8.310;2023-08-06T10:38:16;90704.97;;;9.76;100.00
53300;BME280;39187;48.476;8.310;2023-08-06T10:40:50;90710.09;;;9.83;100.00
53300;BME280;39187;48.476;8.310;2023-08-06T10:43:37;90717.84;;;9.77;100.00
53300;BME280;39187;48.476;8.310;2023-08-06T10:46:11;90723.91;;;9.78;100.00
53300;BME280;39187;48.476;8.310;2023-08-06T10:48:43;90715.94;;;9.78;100.00
53300;BME280;39187;48.476;8.310;2023-08-06T10:51:11;90714.38;;;9.93;100.00
53300;BME280;39187;48.476;8.310;2023-08-06T10:53:38;90710.75;;;9.87;100.00
53300;BME280;39187;48.476;8.310;2023-08-06T10:56:16;90732.41;;;9.73;100.00
53300;BME280;39187;48.476;8.310;2023-08-06T10:58:43;90722.63;;;9.82;100.00
53300;BME280;39187;48.476;8.310;2023-08-06T11:01:10;90724.13;;;9.83;100.00
53300;BME280;39187;48.476;8.310;2023-08-06T11:03:36;90733.91;;;9.86;100.00
53300;BME280;39187;48.476;8.310;2023-08-06T11:06:02;90729.56;;;9.63;100.00
53300;BME280;39187;48.476;8.310;2023-08-06T11:08:30;90732.84;;;9.84;100.00
53300;BME280;39187;48.476;8.310;2023-08-06T11:11:07;90736.38;;;9.93;100.00
53300;BME280;39187;48.476;8.310;2023-08-06T11:13:34;90737.56;;;9.92;100.00
53300;BME280;39187;48.476;8.310;2023-08-06T11:15:59;90737.13;;;9.94;100.00
53300;BME280;39187;48.476;8.310;2023-08-06T11:18:25;90750.72;;;9.67;100.00
53300;BME280;39187;48.476;8.310;2023-08-06T11:20:51;90751.00;;;9.56;100.00
53300;BME280;39187;48.476;8.310;2023-08-06T11:23:16;90770.88;;;9.52;100.00
53300;BME280;39187;48.476;8.310;2023-08-06T11:25:45;90777.31;;;9.67;100.00
53300;BME280;39187;48.476;8.310;2023-08-06T11:28:11;90781.66;;;9.45;100.00
53300;BME280;39187;48.476;8.310;2023-08-06T11:30:38;90780.72;;;9.35;100.00
53300;BME280;39187;48.476;8.310;2023-08-06T11:33:03;90774.78;;;9.47;100.00
53300;BME280;39187;48.476;8.310;2023-08-06T11:35:34;90779.41;;;9.43;100.00
53300;BME280;39187;48.476;8.310;2023-08-06T11:38:00;90791.19;;;9.42;100.00
53300;BME280;39187;48.476;8.310;2023-08-06T11:40:26;90782.22;;;9.36;100.00
53300;BME280;39187;48.476;8.310;2023-08-06T11:42:52;90798.06;;;9.23;100.00
53300;BME280;39187;48.476;8.310;2023-08-06T11:45:22;90787.56;;;9.20;100.00
53300;BME280;39187;48.476;8.310;2023-08-06T11:47:52;90802.63;;;9.23;100.00
53300;BME280;39187;48.476;8.310;2023-08-06T11:50:25;90793.63;;;9.20;100.00
53300;BME280;39187;48.476;8.310;2023-08-06T11:52:59;90801.47;;;9.24;100.00
53300;BME280;39187;48.476;8.310;2023-08-06T11:55:26;90802.88;;;9.29;100.00
53300;BME280;39187;48.476;8.310;2023-08-06T11:57:53;90812.28;;;9.33;100.00
53300;BME280;39187;48.476;8.310;2023-08-06T12:00:19;90804.22;;;9.20;100.00
53300;BME280;39187;48.476;8.310;2023-08-06T12:02:48;90810.66;;;9.03;100.00
53300;BME280;39187;48.476;8.310;2023-08-06T12:05:21;90809.00;;;9.09;100.00
53300;BME280;39187;48.476;8.310;2023-08-06T12:07:52;90818.72;;;9.16;100.00
53300;BME280;39187;48.476;8.310;2023-08-06T12:10:18;90819.16;;;9.14;100.00
53300;BME280;39187;48.476;8.310;2023-08-06T12:12:45;90823.88;;;9.23;100.00
53300;BME280;39187;48.476;8.310;2023-08-06T12:15:11;90822.03;;;9.04;100.00
53300;BME280;39187;48.476;8.310;2023-08-06T12:17:37;90823.38;;;9.12;100.00
53300;BME280;39187;48.476;8.310;2023-08-06T12:20:03;90829.44;;;9.12;100.00
53300;BME280;39187;48.476;8.310;2023-08-06T12:22:33;90831.59;;;9.17;100.00
53300;BME280;39187;48.476;8.310;2023-08-06T12:25:05;90829.44;;;9.12;100.00
53300;BME280;39187;48.476;8.310;2023-08-06T12:27:37;90821.06;;;9.14;100.00
53300;BME280;39187;48.476;8.310;2023-08-06T12:30:04;90822.66;;;9.28;100.00
53300;BME280;39187;48.476;8.310;2023-08-06T12:32:30;90827.63;;;9.25;100.00
53300;BME280;39187;48.476;8.310;2023-08-06T12:34:55;90817.41;;;9.24;100.00
53300;BME280;39187;48.476;8.310;2023-08-06T12:37:21;90817.34;;;9.28;100.00
53300;BME280;39187;48.476;8.310;2023-08-06T12:39:47;90829.13;;;9.27;100.00
53300;BME280;39187;48.476;8.310;2023-08-06T12:42:12;90819.81;;;9.18;100.00
53300;BME280;39187;48.476;8.310;2023-08-06T12:44:38;90814.50;;;9.35;100.00
53300;BME280;39187;48.476;8.310;2023-08-06T12:47:03;90830.44;;;9.35;100.00
53300;BME280;39187;48.476;8.310;2023-08-06T12:49:29;90814.09;;;9.36;100.00
53300;BME280;39187;48.476;8.310;2023-08-06T12:51:57;90829.63;;;9.54;100.00
53300;BME280;39187;48.476;8.310;2023-08-06T12:54:25;90842.25;;;9.50;100.00
53300;BME280;39187;48.476;8.310;2023-08-06T12:56:50;90825.13;;;9.35;100.00
53300;BME280;39187;48.476;8.310;2023-08-06T12:59:16;90820.91;;;9.37;100.00
53300;BME280;39187;48.476;8.310;2023-08-06T13:01:42;90822.72;;;9.24;100.00